createdAt,value
2023-05-06T00:00:03.604Z,58
2023-05-06T00:20:03.130Z,61
2023-05-06T00:40:03.571Z,65
2023-05-06T01:00:03.915Z,68
2023-05-06T01:20:03.134Z,70
2023-05-06T01:40:03.479Z,73
2023-05-06T02:00:03.843Z,75
2023-05-06T02:20:04.240Z,76
2023-05-06T02:40:03.705Z,77
2023-05-06T03:00:04.014Z,77
2023-05-06T03:20:03.329Z,78
2023-05-06T03:40:03.979Z,79
2023-05-06T04:00:03.318Z,79
2023-05-06T04:20:03.908Z,80
2023-05-06T04:40:03.470Z,80
2023-05-06T05:00:03.942Z,81
2023-05-06T05:20:03.459Z,81
2023-05-06T05:40:04.130Z,81
2023-05-06T06:00:03.582Z,81
2023-05-06T06:20:04.086Z,81
2023-05-06T06:40:03.619Z,81
2023-05-06T07:00:04.996Z,81
2023-05-06T07:20:03.382Z,81
2023-05-06T07:40:03.818Z,81
2023-05-06T08:00:03.528Z,82
2023-05-06T08:20:04.087Z,82
2023-05-06T08:40:03.497Z,82
2023-05-06T09:00:03.868Z,82
2023-05-06T09:20:05.000Z,82
2023-05-06T09:40:03.392Z,81
2023-05-06T10:00:03.724Z,81
2023-05-06T10:20:03.392Z,80
2023-05-06T10:40:04.098Z,80
2023-05-06T11:00:03.706Z,81
2023-05-06T11:20:03.225Z,81
2023-05-06T11:40:03.657Z,81
2023-05-06T12:00:03.973Z,81
2023-05-06T12:20:03.459Z,80
2023-05-06T12:40:03.452Z,80
2023-05-06T13:00:03.995Z,79
2023-05-06T13:20:08.287Z,79
2023-05-06T13:40:03.836Z,80
2023-05-06T14:00:03.993Z,80
2023-05-06T14:20:03.750Z,80
2023-05-06T14:40:04.379Z,80
2023-05-06T15:00:03.965Z,79
2023-05-06T15:20:03.385Z,79
2023-05-06T15:40:03.853Z,79
2023-05-06T16:00:03.088Z,79
2023-05-06T16:20:03.510Z,79
2023-05-06T16:40:04.060Z,79
2023-05-06T17:00:03.545Z,79
2023-05-06T17:20:03.220Z,79
2023-05-06T17:40:06.082Z,79
2023-05-06T18:00:03.361Z,80
2023-05-06T18:20:03.974Z,80
2023-05-06T18:40:03.680Z,80
2023-05-06T19:00:03.866Z,81
2023-05-06T19:20:03.109Z,81
2023-05-06T19:40:03.562Z,82
2023-05-06T20:00:03.962Z,82
2023-05-06T20:20:05.081Z,83
2023-05-06T20:40:03.578Z,84
2023-05-06T21:00:03.922Z,84
2023-05-06T21:20:06.440Z,84
2023-05-06T21:40:04.012Z,85
2023-05-06T22:00:03.644Z,85
2023-05-06T22:20:04.551Z,85
2023-05-06T22:40:03.352Z,85
2023-05-06T23:00:03.770Z,85
2023-05-06T23:20:03.264Z,85
2023-05-06T23:40:05.502Z,85
